Aviation Digital Data Service (ADDS)

Output produced by METARs form (0540 UTC 19 March 2019)
found at http://www.aviationweather.gov/metar/data/
 
OAIX 190522Z 31004KT 8000 -RA BR OVC016 03/02 A3004 RMK AO2A SLP138
TAF AMD OAIX 190526Z 1905/2005 03009KT 6000 -RA BR FEW009 BKN015 620205
QNH3001INS 
     BECMG 1905/1906 VRB06KT 8000 -RA BR SCT012 BKN020 620205 QNH2999INS 
     BECMG 1910/1911 30009KT 9999 NSW BKN010 OVC020 620205 QNH2994INS 
     BECMG 1912/1913 VRB06KT 9999 BKN020 OVC030 600302 QNH2993INS 
     TEMPO 1921/2003 VRB06KT 5000 BR TX13/1911Z TN01/2001Z
       
OAHR 190455Z 19005KT 9999 FEW050 12/03 Q1016 RMK A3002 BLU
TAF OAHR 190500Z 1906/2006 16009KT 9999 FEW050 SCT090 
     BECMG 1908/1910 24013KT 9999 VCSH SCT050 BKN090 
     BECMG 1912/1914 22008KT 9999 FEW060 SCT090 
     BECMG 1915/1917 VRB03KT 9999 BKN090 
     BECMG 1922/1924 02005KT CAVOK
       
OAJL 190455Z VRB02KT 5000 -SHRA BR FEW004 BKN006 OVC050 12/11 A2999 RMK AO2A SHRAB0155 SLP142 P0001 T01200105
TAF AMD OAJL 190526Z 1905/2006 VRB06KT 6000 -SHRA BR FEW004 BKN008 QNH2995INS 
     BECMG 1906/1907 VRB06KT 8000 BR BKN030 QNH2988INS 
     TEMPO 1907/1912 8000 -SHRA VCTS BKN030CB 
     BECMG 1913/1914 VRB06KT 9999 NSW SCT030 BKN060 QNH2990INS 
     BECMG 1922/1923 VRB06KT 5000 BR SCT030 BKN060 QNH2992INS 
     BECMG 2003/2004 VRB06KT 9999 NSW FEW070 QNH2996INS TX16/1912Z TN07/2002Z
       
OAKB 190450Z 34008KT 7000 FEW008 BKN035 04/02 Q1016 RESHRA RMK A3003 WHT WHT
TAF OAKB 190505Z 1906/2006 33012KT 9999 FEW020 BKN035 
     PROB30 
     TEMPO 1908/1913 35015G25KT 5000 -SHRA VCTS FEW020CB BKN025 
     BECMG 1914/1916 VRB02KT 6000 SCT030 BKN080 
     BECMG 1922/1924 3000 BR NSC
       
OAKN 190456Z 00000KT 9999 CLR 15/08 A2996 RMK AO2A SLP117 WND DATA ESTMD Q1015 PA3262 DA4000 T01460076
TAF OAKN 182300Z 1823/2005 VRB06KT 9000 BR FEW035 SCT120 QNH2985INS 
     TEMPO 1823/1905 4400 BR BKN120 
     BECMG 1906/1907 27010G15KT 9999 NSW SCT120 QNH2988INS 
     BECMG 1912/1913 29009KT 9999 FEW120 QNH2989INS TX21/1911Z TN09/1902Z
       
OAMS 190450Z 23016KT 9999 SCT120 BKN200 15/07 Q1013 BLU+BLU+
TAF OAMS 190505Z 1906/2006 24012KT 9999 NSW FEW060 BKN100 OVC240 
     BECMG 1910/1912 36009KT 9999 NSW FEW035 BKN110 BKN200 
     BECMG 1916/1918 23012KT 9999 VCSH BKN035 BKN110 BKN200 
     TEMPO 1919/1924 23012KT 8000 -SHRA OVC015 
     BECMG 1922/1924 23012KT 8000 NSW BKN015 OVC080 
     PROB30 1903/1906 27009KT 4000 FU OVC015